createdAt,value
2022-12-31T00:00:17.012Z,3.30
2022-12-31T00:02:44.580Z,3.55
2022-12-31T00:05:12.107Z,2.35
2022-12-31T00:10:06.084Z,3.10
2022-12-31T00:12:33.513Z,3.70
2022-12-31T00:15:00.894Z,2.58
2022-12-31T00:17:28.228Z,4.53
2022-12-31T00:19:55.672Z,2.85
2022-12-31T00:22:23.136Z,3.50
2022-12-31T00:24:50.326Z,1.98
2022-12-31T00:27:17.603Z,1.67
2022-12-31T00:29:44.983Z,2.88
2022-12-31T00:32:12.447Z,4.57
2022-12-31T00:34:39.764Z,2.42
2022-12-31T00:37:07.139Z,3.78
2022-12-31T00:39:34.464Z,3.40
2022-12-31T00:42:01.829Z,7.07
2022-12-31T00:44:29.035Z,3.60
2022-12-31T00:46:56.257Z,3.20
2022-12-31T00:49:23.738Z,3.65
2022-12-31T00:51:51.063Z,2.08
2022-12-31T00:54:18.345Z,2.88
2022-12-31T00:56:45.704Z,2.28
2022-12-31T00:59:13.234Z,2.38
2022-12-31T01:01:41.118Z,2.45
2022-12-31T01:04:15.032Z,2.33
2022-12-31T01:06:43.092Z,3.75
2022-12-31T01:09:12.241Z,2.50
2022-12-31T01:11:41.408Z,2.50
2022-12-31T01:14:15.107Z,3.08
2022-12-31T01:16:51.367Z,3.92
2022-12-31T01:19:22.430Z,3.10
2022-12-31T01:21:50.703Z,3.63
2022-12-31T01:24:18.655Z,2.17
2022-12-31T01:26:46.801Z,1.23
2022-12-31T01:29:14.757Z,1.85
2022-12-31T01:31:42.018Z,2.10
2022-12-31T01:34:09.860Z,2.28
2022-12-31T01:36:38.367Z,1.10
2022-12-31T01:39:07.535Z,1.52
2022-12-31T01:41:44.878Z,2.40
2022-12-31T01:44:12.326Z,1.98
2022-12-31T01:46:44.805Z,2.35
2022-12-31T01:49:29.461Z,2.70
2022-12-31T01:52:21.984Z,1.85
2022-12-31T01:55:00.427Z,1.23
2022-12-31T01:57:28.509Z,1.27
2022-12-31T01:59:58.165Z,1.95
2022-12-31T02:02:26.160Z,2.38
2022-12-31T02:04:57.013Z,0.95
2022-12-31T02:07:24.348Z,1.10
2022-12-31T02:09:52.516Z,1.88
2022-12-31T02:12:19.832Z,0.93
2022-12-31T02:14:50.796Z,2.90
2022-12-31T02:17:23.914Z,1.60
2022-12-31T02:20:28.815Z,0.98
2022-12-31T02:23:29.791Z,1.15
2022-12-31T02:26:15.909Z,1.38
2022-12-31T02:28:52.300Z,1.77
2022-12-31T02:31:27.374Z,1.02
2022-12-31T02:34:05.166Z,1.30
2022-12-31T02:36:42.362Z,1.15
2022-12-31T02:39:11.019Z,1.63
2022-12-31T02:41:50.097Z,2.08
2022-12-31T02:44:37.080Z,1.67
2022-12-31T02:47:23.022Z,1.30
2022-12-31T02:50:13.614Z,4.53
2022-12-31T02:53:08.265Z,3.88
2022-12-31T02:56:00.254Z,2.53
2022-12-31T02:59:20.570Z,2.13
2022-12-31T03:02:12.952Z,2.05
2022-12-31T03:04:47.124Z,1.45
2022-12-31T03:07:22.976Z,1.45
2022-12-31T03:09:50.636Z,1.48
2022-12-31T03:12:38.428Z,3.63
2022-12-31T03:15:20.291Z,1.73
2022-12-31T03:18:04.431Z,1.65
2022-12-31T03:20:53.232Z,1.58
2022-12-31T03:23:30.216Z,1.60
2022-12-31T03:25:58.757Z,1.52
2022-12-31T03:28:28.638Z,1.48
2022-12-31T03:30:59.161Z,1.23
2022-12-31T03:33:30.030Z,1.55
2022-12-31T03:35:57.505Z,1.25
2022-12-31T03:38:24.812Z,3.58
2022-12-31T03:40:53.285Z,1.35
2022-12-31T03:43:20.936Z,3.45
2022-12-31T03:45:51.932Z,1.73
2022-12-31T03:48:19.908Z,1.33
2022-12-31T03:50:47.097Z,2.63
2022-12-31T03:53:15.355Z,3.33
2022-12-31T03:55:42.669Z,2.35
2022-12-31T03:58:09.925Z,1.73
2022-12-31T04:00:37.150Z,1.48
2022-12-31T04:03:04.396Z,1.35
2022-12-31T04:05:32.426Z,1.38
2022-12-31T04:07:59.730Z,1.45
2022-12-31T04:10:26.920Z,1.67
2022-12-31T04:12:54.227Z,2.00
2022-12-31T04:15:22.041Z,4.57
2022-12-31T04:17:49.371Z,2.05
2022-12-31T04:20:16.657Z,2.05
2022-12-31T04:22:44.533Z,4.68
2022-12-31T04:25:13.059Z,1.45
2022-12-31T04:27:43.781Z,3.22
2022-12-31T04:30:13.291Z,2.67
2022-12-31T04:32:40.891Z,1.92
2022-12-31T04:35:09.040Z,2.33
2022-12-31T04:37:36.479Z,1.42
2022-12-31T04:40:06.576Z,1.38
2022-12-31T04:42:35.241Z,2.53
2022-12-31T04:45:02.698Z,2.35
2022-12-31T04:47:30.210Z,4.47
2022-12-31T04:49:57.603Z,2.60
2022-12-31T04:52:24.812Z,2.10
2022-12-31T04:54:52.056Z,3.90
2022-12-31T04:57:19.359Z,2.03
2022-12-31T04:59:46.604Z,4.55
2022-12-31T05:02:14.073Z,1.83
2022-12-31T05:04:41.505Z,2.13
2022-12-31T05:07:09.002Z,2.67
2022-12-31T05:09:36.326Z,2.03
2022-12-31T05:12:03.709Z,2.75
2022-12-31T05:14:30.969Z,3.63
2022-12-31T05:16:59.480Z,1.90
2022-12-31T05:19:26.803Z,2.97
2022-12-31T05:22:12.546Z,1.85
2022-12-31T05:24:40.153Z,2.38
2022-12-31T05:27:07.323Z,3.97
2022-12-31T05:29:34.524Z,2.90
2022-12-31T05:32:01.805Z,1.73
2022-12-31T05:34:29.173Z,1.67
2022-12-31T05:36:56.396Z,2.08
2022-12-31T05:39:23.722Z,2.00
2022-12-31T05:41:51.954Z,1.38
2022-12-31T05:44:19.405Z,2.33
2022-12-31T05:46:47.410Z,2.15
2022-12-31T05:49:14.671Z,1.55
2022-12-31T05:51:41.984Z,5.18
2022-12-31T05:54:09.273Z,2.28
2022-12-31T05:56:37.089Z,3.38
2022-12-31T05:59:04.911Z,1.55
2022-12-31T06:01:32.406Z,3.78
2022-12-31T06:04:00.676Z,3.00
2022-12-31T06:06:28.456Z,4.90
2022-12-31T06:08:55.807Z,3.33
2022-12-31T06:11:23.193Z,2.15
2022-12-31T06:13:50.619Z,2.63
2022-12-31T06:16:17.910Z,2.30
2022-12-31T06:18:47.800Z,3.00
2022-12-31T06:21:16.176Z,1.83
2022-12-31T06:23:43.503Z,2.45
2022-12-31T06:26:10.914Z,3.42
2022-12-31T06:28:38.253Z,3.17
2022-12-31T06:31:08.237Z,2.47
2022-12-31T06:33:35.607Z,2.00
2022-12-31T06:36:05.916Z,4.57
2022-12-31T06:38:35.134Z,1.88
2022-12-31T06:41:10.552Z,3.65
2022-12-31T06:43:39.196Z,2.58
2022-12-31T06:46:08.672Z,1.92
2022-12-31T06:48:36.825Z,4.40
2022-12-31T06:51:17.012Z,1.73
2022-12-31T06:53:46.213Z,4.32
2022-12-31T06:56:18.761Z,2.15
2022-12-31T06:58:47.088Z,3.97
2022-12-31T07:01:33.208Z,4.78
2022-12-31T07:04:38.292Z,2.53
2022-12-31T07:07:44.841Z,3.38
2022-12-31T07:10:27.266Z,3.25
2022-12-31T07:13:23.610Z,1.92
2022-12-31T07:16:09.014Z,2.60
2022-12-31T07:18:45.416Z,4.13
2022-12-31T07:21:19.385Z,2.10
2022-12-31T07:23:46.905Z,2.92
2022-12-31T07:26:32.710Z,2.67
2022-12-31T07:29:19.046Z,4.10
2022-12-31T07:32:23.360Z,2.15
2022-12-31T07:34:53.579Z,1.67
2022-12-31T07:37:30.150Z,4.50
2022-12-31T07:40:51.136Z,3.15
2022-12-31T07:43:50.778Z,3.30
2022-12-31T07:46:43.027Z,1.95
2022-12-31T07:49:13.949Z,1.65
2022-12-31T07:51:42.023Z,2.95
2022-12-31T07:54:13.958Z,4.90
2022-12-31T07:56:43.058Z,2.38
2022-12-31T07:59:40.811Z,1.67
2022-12-31T08:02:34.533Z,2.72
2022-12-31T08:05:25.508Z,1.90
2022-12-31T08:08:11.389Z,1.42
2022-12-31T08:10:44.002Z,0.82
2022-12-31T08:13:12.616Z,3.22
2022-12-31T08:15:41.130Z,2.38
2022-12-31T08:18:09.203Z,1.80
2022-12-31T08:20:45.581Z,2.45
2022-12-31T08:23:21.707Z,4.22
2022-12-31T08:26:15.095Z,1.80
2022-12-31T08:29:03.620Z,1.50
2022-12-31T08:31:57.909Z,3.45
2022-12-31T08:34:33.412Z,1.45
2022-12-31T08:37:16.313Z,2.25
2022-12-31T08:40:11.355Z,1.80
2022-12-31T08:42:48.185Z,2.05
2022-12-31T08:45:47.295Z,3.33
2022-12-31T08:48:37.888Z,1.83
2022-12-31T08:51:05.909Z,2.80
2022-12-31T08:53:35.069Z,1.90
2022-12-31T08:56:12.842Z,3.40
2022-12-31T08:59:06.817Z,2.00
2022-12-31T09:01:56.081Z,1.98
2022-12-31T09:04:45.329Z,1.35
2022-12-31T09:07:14.121Z,2.03
2022-12-31T09:10:07.838Z,3.72
2022-12-31T09:12:56.351Z,1.63
2022-12-31T09:15:33.908Z,1.85
2022-12-31T09:18:01.529Z,3.47
2022-12-31T09:20:42.348Z,1.48
2022-12-31T09:26:00.745Z,2.85
2022-12-31T09:28:53.251Z,1.80
2022-12-31T09:31:49.933Z,2.53
2022-12-31T09:34:41.308Z,1.05
2022-12-31T09:37:41.320Z,1.17
2022-12-31T09:40:23.713Z,1.70
2022-12-31T09:43:16.055Z,2.25
2022-12-31T09:46:02.266Z,2.15
2022-12-31T09:49:09.585Z,3.50
2022-12-31T09:51:54.901Z,4.38
2022-12-31T09:54:22.230Z,2.05
2022-12-31T09:57:14.494Z,2.38
2022-12-31T10:02:59.719Z,3.67
2022-12-31T10:05:30.205Z,1.73
2022-12-31T10:08:29.660Z,1.35
2022-12-31T10:11:05.522Z,2.13
2022-12-31T10:13:44.904Z,3.08
2022-12-31T10:16:34.196Z,2.05
2022-12-31T10:19:40.215Z,2.58
2022-12-31T10:22:38.585Z,2.15
2022-12-31T10:25:38.737Z,2.03
2022-12-31T10:28:20.488Z,3.10
2022-12-31T10:31:38.741Z,2.05
2022-12-31T10:34:16.647Z,2.00
2022-12-31T10:36:57.900Z,2.92
2022-12-31T10:39:51.493Z,5.43
2022-12-31T10:42:48.484Z,2.92
2022-12-31T10:45:52.126Z,4.65
2022-12-31T10:48:59.338Z,2.38
2022-12-31T10:52:10.394Z,3.30
2022-12-31T10:55:05.521Z,2.20
2022-12-31T10:57:51.603Z,2.22
2022-12-31T11:00:19.785Z,4.30
2022-12-31T11:03:29.649Z,3.97
2022-12-31T11:06:24.435Z,3.22
2022-12-31T11:09:00.896Z,2.10
2022-12-31T11:12:12.765Z,3.95
2022-12-31T11:14:59.325Z,2.15
2022-12-31T11:17:29.869Z,2.00
2022-12-31T11:20:28.116Z,2.38
2022-12-31T11:23:14.499Z,3.05
2022-12-31T11:25:54.348Z,4.82
2022-12-31T11:28:39.874Z,3.40
2022-12-31T11:31:18.964Z,3.08
2022-12-31T11:34:07.679Z,2.35
2022-12-31T11:36:50.134Z,2.72
2022-12-31T11:39:39.899Z,2.70
2022-12-31T11:42:19.543Z,5.15
2022-12-31T11:44:59.683Z,4.85
2022-12-31T11:47:29.945Z,4.80
2022-12-31T11:50:34.013Z,2.92
2022-12-31T11:53:08.244Z,3.05
2022-12-31T11:55:47.636Z,3.03
2022-12-31T11:58:17.552Z,2.50
2022-12-31T12:00:53.239Z,3.05
2022-12-31T12:03:20.685Z,3.47
2022-12-31T12:05:47.948Z,2.28
2022-12-31T12:08:16.843Z,3.35
2022-12-31T12:11:00.206Z,2.17
2022-12-31T12:13:28.196Z,4.13
2022-12-31T12:15:59.178Z,3.60
2022-12-31T12:18:40.954Z,2.17
2022-12-31T12:21:23.056Z,4.03
2022-12-31T12:24:02.353Z,2.78
2022-12-31T12:26:37.678Z,2.00
2022-12-31T12:29:16.872Z,6.60
2022-12-31T12:31:56.163Z,3.72
2022-12-31T12:34:40.882Z,3.65
2022-12-31T12:37:33.261Z,6.05
2022-12-31T12:40:33.441Z,3.75
2022-12-31T12:43:02.881Z,3.75
2022-12-31T12:45:47.666Z,3.40
2022-12-31T12:48:43.939Z,4.00
2022-12-31T12:51:26.838Z,5.07
2022-12-31T12:54:15.859Z,3.72
2022-12-31T12:57:04.503Z,3.70
2022-12-31T12:59:57.740Z,4.60
2022-12-31T13:02:52.737Z,2.95
2022-12-31T13:05:57.243Z,4.95
2022-12-31T13:08:42.476Z,5.13
2022-12-31T13:11:39.091Z,4.63
2022-12-31T13:14:33.040Z,4.78
2022-12-31T13:17:45.228Z,3.72
2022-12-31T13:20:30.571Z,4.07
2022-12-31T13:23:15.625Z,7.30
2022-12-31T13:25:48.458Z,4.75
2022-12-31T13:28:18.310Z,4.93
2022-12-31T13:31:07.250Z,6.25
2022-12-31T13:33:59.837Z,4.00
2022-12-31T13:36:30.067Z,3.78
2022-12-31T13:39:02.620Z,5.85
2022-12-31T13:41:36.534Z,4.15
2022-12-31T13:44:22.571Z,3.58
2022-12-31T13:47:23.935Z,3.38
2022-12-31T13:50:02.848Z,6.67
2022-12-31T13:52:51.574Z,3.70
2022-12-31T13:55:24.558Z,6.07
2022-12-31T13:58:12.447Z,3.47
2022-12-31T14:01:15.087Z,4.43
2022-12-31T14:03:51.413Z,4.72
2022-12-31T14:06:27.719Z,7.53
2022-12-31T14:08:54.983Z,4.22
2022-12-31T14:11:31.169Z,5.97
2022-12-31T14:14:36.776Z,5.75
2022-12-31T14:17:17.841Z,4.57
2022-12-31T14:19:58.412Z,5.55
2022-12-31T14:22:36.820Z,5.90
2022-12-31T14:25:15.616Z,5.32
2022-12-31T14:27:45.235Z,4.75
2022-12-31T14:30:21.470Z,7.40
2022-12-31T14:33:13.245Z,3.55
2022-12-31T14:36:18.564Z,6.30
2022-12-31T14:39:18.359Z,5.65
2022-12-31T14:41:58.097Z,7.32
2022-12-31T14:44:42.008Z,4.10
2022-12-31T14:47:27.388Z,6.13
2022-12-31T14:50:05.928Z,6.97
2022-12-31T14:52:35.921Z,7.18
2022-12-31T14:55:23.040Z,4.15
2022-12-31T15:00:40.085Z,4.72
2022-12-31T15:03:16.879Z,4.20
2022-12-31T15:06:01.922Z,4.32
2022-12-31T15:08:53.640Z,5.43
2022-12-31T15:11:50.023Z,6.47
2022-12-31T15:14:37.186Z,8.23
2022-12-31T15:17:05.327Z,5.25
2022-12-31T15:19:51.935Z,4.65
2022-12-31T15:22:36.965Z,4.93
2022-12-31T15:25:28.499Z,5.97
2022-12-31T15:28:00.864Z,5.05
2022-12-31T15:30:45.987Z,4.38
2022-12-31T15:33:29.047Z,14.18
2022-12-31T15:35:57.841Z,7.75
2022-12-31T15:38:35.088Z,7.13
2022-12-31T15:41:19.600Z,6.88
2022-12-31T15:44:01.166Z,7.38
2022-12-31T15:46:33.141Z,6.60
2022-12-31T15:49:09.005Z,5.90
2022-12-31T15:51:50.394Z,6.28
2022-12-31T15:54:31.651Z,6.93
2022-12-31T15:57:03.020Z,4.83
2022-12-31T15:59:33.134Z,6.22
2022-12-31T16:02:00.993Z,5.97
2022-12-31T16:04:33.228Z,6.50
2022-12-31T16:07:03.000Z,5.22
2022-12-31T16:09:35.926Z,5.47
2022-12-31T16:12:10.994Z,8.02
2022-12-31T16:14:42.659Z,6.00
2022-12-31T16:17:30.131Z,7.28
2022-12-31T16:19:59.173Z,7.32
2022-12-31T16:22:38.756Z,7.40
2022-12-31T16:25:30.083Z,6.75
2022-12-31T16:27:55.685Z,5.97
2022-12-31T16:30:27.540Z,7.03
2022-12-31T16:35:36.948Z,9.55
2022-12-31T16:38:17.594Z,10.88
2022-12-31T16:41:03.344Z,10.65
2022-12-31T16:43:38.436Z,6.53
2022-12-31T16:46:27.031Z,7.28
2022-12-31T16:48:59.626Z,7.30
2022-12-31T16:51:30.941Z,9.60
2022-12-31T16:53:59.551Z,8.40
2022-12-31T16:56:36.906Z,8.38
2022-12-31T16:59:31.920Z,8.77
2022-12-31T17:02:05.066Z,9.38
2022-12-31T17:04:32.771Z,8.00
2022-12-31T17:07:39.050Z,7.63
2022-12-31T17:10:19.576Z,11.30
2022-12-31T17:13:28.140Z,13.85
2022-12-31T17:15:46.237Z,10.07
2022-12-31T17:18:23.190Z,10.50
2022-12-31T17:20:52.665Z,8.35
2022-12-31T17:23:28.422Z,9.35
2022-12-31T17:26:06.771Z,9.68
2022-12-31T17:28:43.602Z,7.60
2022-12-31T17:31:34.149Z,12.88
2022-12-31T17:34:13.753Z,8.65
2022-12-31T17:37:03.371Z,10.65
2022-12-31T17:39:47.258Z,8.90
2022-12-31T17:42:26.466Z,11.35
2022-12-31T17:44:57.773Z,11.07
2022-12-31T17:47:32.800Z,11.15
2022-12-31T17:50:24.274Z,9.82
2022-12-31T17:52:56.753Z,8.20
2022-12-31T17:55:24.183Z,32.45
2022-12-31T17:57:55.878Z,17.05
2022-12-31T18:00:26.056Z,17.52
2022-12-31T18:02:53.660Z,25.90
2022-12-31T18:05:23.274Z,30.27
2022-12-31T18:07:51.009Z,37.55
2022-12-31T18:10:20.133Z,12.00
2022-12-31T18:12:48.942Z,14.35
2022-12-31T18:15:19.474Z,10.48
2022-12-31T18:17:47.203Z,10.65
2022-12-31T18:20:14.585Z,9.57
2022-12-31T18:22:44.153Z,12.30
2022-12-31T18:25:21.804Z,11.20
2022-12-31T18:27:50.209Z,12.02
2022-12-31T18:30:18.230Z,13.77
2022-12-31T18:32:46.844Z,11.63
2022-12-31T18:36:06.676Z,12.57
2022-12-31T18:38:15.943Z,11.52
2022-12-31T18:40:46.995Z,10.75
2022-12-31T18:43:20.214Z,10.80
2022-12-31T18:45:49.377Z,13.45
2022-12-31T18:48:17.941Z,9.95
2022-12-31T18:50:46.478Z,9.75
2022-12-31T18:53:22.690Z,10.23
2022-12-31T18:55:53.146Z,35.53
2022-12-31T18:58:20.835Z,12.48
2022-12-31T19:00:51.080Z,17.63
2022-12-31T19:03:24.907Z,11.95
2022-12-31T19:05:52.624Z,11.88
2022-12-31T19:08:21.754Z,14.35
2022-12-31T19:10:50.516Z,13.68
2022-12-31T19:13:19.986Z,17.33
2022-12-31T19:15:52.579Z,14.20
2022-12-31T19:18:20.242Z,13.43
2022-12-31T19:20:47.926Z,15.88
2022-12-31T19:23:18.207Z,14.05
2022-12-31T19:25:48.131Z,11.82
2022-12-31T19:28:18.830Z,12.43
2022-12-31T19:30:46.411Z,13.32
2022-12-31T19:33:14.993Z,14.30
2022-12-31T19:35:42.870Z,13.38
2022-12-31T19:38:19.641Z,13.05
2022-12-31T19:40:48.438Z,14.93
2022-12-31T19:43:17.716Z,16.38
2022-12-31T19:45:45.794Z,16.40
2022-12-31T19:48:18.508Z,15.43
2022-12-31T19:50:48.357Z,14.65
2022-12-31T19:53:22.422Z,13.48
2022-12-31T19:55:50.606Z,15.27
2022-12-31T19:58:25.773Z,19.95
2022-12-31T20:00:58.442Z,27.63
2022-12-31T20:03:29.458Z,18.90
2022-12-31T20:06:08.755Z,15.48
2022-12-31T20:08:38.076Z,16.77
2022-12-31T20:11:15.483Z,16.05
2022-12-31T20:13:43.187Z,13.10
2022-12-31T20:16:14.093Z,14.88
2022-12-31T20:18:42.967Z,12.07
2022-12-31T20:21:36.707Z,12.57
2022-12-31T20:24:04.529Z,11.32
2022-12-31T20:26:33.135Z,11.68
2022-12-31T20:29:02.619Z,10.15
2022-12-31T20:31:34.084Z,11.27
2022-12-31T20:34:06.215Z,9.50
2022-12-31T20:36:39.794Z,10.23
2022-12-31T20:39:07.917Z,14.50
2022-12-31T20:41:35.255Z,12.07
2022-12-31T20:44:02.644Z,12.13
2022-12-31T20:46:31.209Z,14.38
2022-12-31T20:49:00.465Z,15.07
2022-12-31T20:51:30.321Z,9.27
2022-12-31T20:54:03.025Z,12.93
2022-12-31T20:56:32.674Z,12.13
2022-12-31T20:59:00.408Z,11.30
2022-12-31T21:01:41.812Z,11.95
2022-12-31T21:04:15.385Z,10.75
2022-12-31T21:06:43.155Z,8.35
2022-12-31T21:09:10.670Z,11.52
2022-12-31T21:11:56.384Z,14.18
2022-12-31T21:14:23.854Z,11.75
2022-12-31T21:16:51.314Z,8.85
2022-12-31T21:19:18.710Z,9.55
2022-12-31T21:21:48.252Z,12.30
2022-12-31T21:24:23.315Z,14.52
2022-12-31T21:26:51.820Z,15.30
2022-12-31T21:29:19.014Z,16.40
2022-12-31T21:31:46.366Z,16.88
2022-12-31T21:34:13.647Z,18.88
2022-12-31T21:36:40.827Z,17.88
2022-12-31T21:39:08.096Z,11.77
2022-12-31T21:41:53.535Z,16.38
2022-12-31T21:44:23.630Z,13.30
2022-12-31T21:47:36.448Z,14.57
2022-12-31T21:50:06.312Z,19.85
2022-12-31T21:52:35.223Z,20.38
2022-12-31T21:55:23.638Z,33.67
2022-12-31T21:58:24.855Z,22.77
2022-12-31T22:00:58.037Z,19.60
2022-12-31T22:03:27.639Z,15.73
2022-12-31T22:06:03.296Z,16.75
2022-12-31T22:08:31.647Z,14.18
2022-12-31T22:11:02.145Z,14.75
2022-12-31T22:13:29.348Z,18.33
2022-12-31T22:16:04.724Z,21.80
2022-12-31T22:18:39.090Z,21.00
2022-12-31T22:21:18.191Z,16.60
2022-12-31T22:23:48.259Z,21.83
2022-12-31T22:26:17.120Z,26.48
2022-12-31T22:28:45.756Z,23.65
2022-12-31T22:31:14.946Z,16.65
2022-12-31T22:33:43.366Z,18.00
2022-12-31T22:36:19.619Z,17.83
2022-12-31T22:38:47.832Z,25.98
2022-12-31T22:41:20.659Z,17.73
2022-12-31T22:44:02.594Z,16.85
2022-12-31T22:46:31.219Z,21.35
2022-12-31T22:48:59.956Z,15.07
2022-12-31T22:51:57.397Z,16.77
2022-12-31T22:54:17.285Z,22.02
2022-12-31T22:56:44.574Z,26.77
2022-12-31T22:59:11.830Z,30.00
2022-12-31T23:01:39.145Z,40.75
2022-12-31T23:04:06.722Z,173.30
2022-12-31T23:06:43.550Z,486.35
2022-12-31T23:09:31.280Z,352.35
2022-12-31T23:11:59.222Z,262.75
2022-12-31T23:14:45.427Z,319.90
2022-12-31T23:17:37.240Z,329.52
2022-12-31T23:20:24.817Z,374.85
2022-12-31T23:23:10.741Z,435.13
2022-12-31T23:25:46.580Z,306.15
2022-12-31T23:28:25.247Z,296.20
2022-12-31T23:30:52.845Z,249.73
2022-12-31T23:33:25.840Z,218.18
2022-12-31T23:36:04.665Z,238.95
2022-12-31T23:38:31.974Z,155.07
2022-12-31T23:40:59.169Z,141.77
2022-12-31T23:43:26.974Z,166.13
2022-12-31T23:45:54.279Z,116.47
2022-12-31T23:48:21.582Z,167.18
2022-12-31T23:50:53.368Z,118.28
2022-12-31T23:53:22.748Z,118.85
2022-12-31T23:55:50.526Z,151.93
2022-12-31T23:58:17.828Z,117.25
